createdAt,value
2018-11-04T00:00:04.482Z,0
2018-11-04T00:00:45.030Z,0
2018-11-04T00:01:25.635Z,0
2018-11-04T00:02:06.149Z,0
2018-11-04T00:02:46.701Z,0
2018-11-04T00:03:27.261Z,0
2018-11-04T00:04:07.838Z,0
2018-11-04T00:04:48.396Z,0
2018-11-04T00:05:28.947Z,0
2018-11-04T00:06:09.501Z,0
2018-11-04T00:06:50.075Z,0
2018-11-04T00:07:30.650Z,0
2018-11-04T00:08:11.221Z,0
2018-11-04T00:08:51.781Z,0
2018-11-04T00:09:32.347Z,0
2018-11-04T00:10:12.918Z,0
2018-11-04T00:10:53.491Z,0
2018-11-04T00:11:34.085Z,0
2018-11-04T00:12:14.639Z,0
2018-11-04T00:12:55.193Z,0
2018-11-04T00:13:35.749Z,0
2018-11-04T00:14:16.347Z,0
2018-11-04T00:14:57.009Z,0
2018-11-04T00:15:37.514Z,0
2018-11-04T00:16:18.141Z,0
2018-11-04T00:16:58.737Z,0
2018-11-04T00:17:39.297Z,0
2018-11-04T00:18:19.863Z,0
2018-11-04T00:19:00.427Z,0
2018-11-04T00:19:40.977Z,0
2018-11-04T00:20:21.590Z,0
2018-11-04T00:21:02.099Z,0
2018-11-04T00:21:42.649Z,0
2018-11-04T00:22:23.204Z,0
2018-11-04T00:23:03.786Z,0
2018-11-04T00:23:44.366Z,0
2018-11-04T00:24:24.929Z,0
2018-11-04T00:25:05.482Z,0
2018-11-04T00:25:46.061Z,0
2018-11-04T00:26:26.617Z,0
2018-11-04T00:27:07.184Z,0
2018-11-04T00:27:47.733Z,0
2018-11-04T00:28:28.284Z,0
2018-11-04T00:29:08.844Z,0
2018-11-04T00:29:49.515Z,0
2018-11-04T00:30:29.985Z,0
2018-11-04T00:31:10.552Z,0
2018-11-04T00:31:51.124Z,0
2018-11-04T00:32:31.677Z,0
2018-11-04T00:33:12.242Z,0
2018-11-04T00:33:52.792Z,0
2018-11-04T00:34:33.430Z,0
2018-11-04T00:35:13.937Z,0
2018-11-04T00:35:54.509Z,0
2018-11-04T00:36:35.066Z,0
2018-11-04T00:37:15.624Z,0
2018-11-04T00:37:56.181Z,0
2018-11-04T00:38:36.741Z,0
2018-11-04T00:39:17.310Z,0
2018-11-04T00:39:57.891Z,0
2018-11-04T00:40:38.433Z,0
2018-11-04T00:41:19.008Z,0
2018-11-04T00:41:59.577Z,0
2018-11-04T00:42:40.131Z,0
2018-11-04T00:43:20.686Z,0
2018-11-04T00:44:01.247Z,0
2018-11-04T00:44:41.812Z,0
2018-11-04T00:45:22.479Z,0
2018-11-04T00:46:02.935Z,0
2018-11-04T00:46:43.486Z,0
2018-11-04T00:47:24.052Z,0
2018-11-04T00:48:04.600Z,0
2018-11-04T00:48:45.180Z,0
2018-11-04T00:49:25.827Z,0
2018-11-04T00:50:06.397Z,0
2018-11-04T00:50:46.942Z,0
2018-11-04T00:51:27.504Z,0
2018-11-04T00:52:08.089Z,0
2018-11-04T00:52:48.652Z,0
2018-11-04T00:53:29.201Z,0
2018-11-04T00:54:09.751Z,0
2018-11-04T00:54:50.345Z,0
2018-11-04T00:55:30.899Z,0
2018-11-04T00:56:11.461Z,0
2018-11-04T00:56:52.015Z,0
2018-11-04T00:57:32.576Z,0
2018-11-04T00:58:13.130Z,0
2018-11-04T00:58:53.686Z,0
2018-11-04T00:59:34.240Z,0
2018-11-04T01:00:14.840Z,0
2018-11-04T01:00:55.396Z,0
2018-11-04T01:01:36.029Z,0
2018-11-04T01:02:16.576Z,0
2018-11-04T01:02:57.127Z,0
2018-11-04T01:03:37.686Z,0
2018-11-04T01:04:18.247Z,0
2018-11-04T01:04:58.815Z,0
2018-11-04T01:05:39.365Z,0
2018-11-04T01:06:19.970Z,0
2018-11-04T01:07:00.496Z,0
2018-11-04T01:07:41.060Z,0
2018-11-04T01:08:21.602Z,0
2018-11-04T01:09:02.217Z,0
2018-11-04T01:09:42.715Z,0
2018-11-04T01:10:23.284Z,0
2018-11-04T01:11:04.216Z,0
2018-11-04T01:11:44.782Z,0
2018-11-04T01:12:25.364Z,0
2018-11-04T01:13:05.907Z,0
2018-11-04T01:13:46.474Z,0
2018-11-04T01:14:27.037Z,0
2018-11-04T01:15:07.589Z,0
2018-11-04T01:15:48.174Z,0
2018-11-04T01:16:28.733Z,0
2018-11-04T01:17:09.284Z,0
2018-11-04T01:17:49.840Z,0
2018-11-04T01:18:30.410Z,0
2018-11-04T01:19:10.972Z,0
2018-11-04T01:19:51.533Z,0
2018-11-04T01:20:32.095Z,0
2018-11-04T01:21:12.674Z,0
2018-11-04T01:21:53.203Z,0
2018-11-04T01:22:33.752Z,0
2018-11-04T01:23:14.320Z,0
2018-11-04T01:23:54.900Z,0
2018-11-04T01:24:35.525Z,0
2018-11-04T01:25:16.022Z,0
2018-11-04T01:25:56.584Z,0
2018-11-04T01:26:37.156Z,0
2018-11-04T01:27:17.692Z,0
2018-11-04T01:27:58.265Z,0
2018-11-04T01:28:38.811Z,0
2018-11-04T01:29:19.427Z,0
2018-11-04T01:29:59.944Z,0
2018-11-04T01:30:40.493Z,0
2018-11-04T01:31:21.059Z,0
2018-11-04T01:32:01.608Z,0
2018-11-04T01:32:44.834Z,0
2018-11-04T01:33:25.391Z,0
2018-11-04T01:34:05.950Z,0
2018-11-04T01:34:46.501Z,0
2018-11-04T01:35:27.139Z,0
2018-11-04T01:36:07.619Z,0
2018-11-04T01:36:48.172Z,0
2018-11-04T01:37:28.722Z,0
2018-11-04T01:38:09.282Z,0
2018-11-04T01:38:49.835Z,0
2018-11-04T01:39:30.389Z,0
2018-11-04T01:40:10.944Z,0
2018-11-04T01:40:51.484Z,0
2018-11-04T01:41:32.055Z,0
2018-11-04T01:42:12.610Z,0
2018-11-04T01:42:53.164Z,0
2018-11-04T01:43:33.715Z,0
2018-11-04T01:44:14.266Z,0
2018-11-04T01:44:54.823Z,0
2018-11-04T01:45:35.380Z,0
2018-11-04T01:46:15.948Z,0
2018-11-04T01:46:56.504Z,0
2018-11-04T01:47:37.068Z,0
2018-11-04T01:48:17.641Z,0
2018-11-04T01:48:58.196Z,0
2018-11-04T01:49:38.739Z,0
2018-11-04T01:50:19.278Z,0
2018-11-04T01:50:59.857Z,0
2018-11-04T01:51:40.384Z,0
2018-11-04T01:52:20.939Z,0
2018-11-04T01:53:01.506Z,0
2018-11-04T01:53:42.079Z,0
2018-11-04T01:54:22.632Z,0
2018-11-04T01:55:03.235Z,0
2018-11-04T01:55:43.832Z,0
2018-11-04T01:56:24.375Z,0
2018-11-04T01:57:04.932Z,0
2018-11-04T01:57:45.520Z,0
2018-11-04T01:58:26.109Z,0
2018-11-04T01:59:06.673Z,0
2018-11-04T01:59:47.229Z,0
2018-11-04T02:00:27.787Z,0
2018-11-04T02:01:08.335Z,0
2018-11-04T02:01:48.890Z,0
2018-11-04T02:02:29.444Z,0
2018-11-04T02:03:10.018Z,0
2018-11-04T02:03:50.576Z,0
2018-11-04T02:04:31.140Z,0
2018-11-04T02:05:11.689Z,0
2018-11-04T02:05:52.246Z,0
2018-11-04T02:06:32.814Z,0
2018-11-04T02:07:13.368Z,0
2018-11-04T02:07:53.931Z,0
2018-11-04T02:08:34.502Z,0
2018-11-04T02:09:15.037Z,0
2018-11-04T02:09:55.599Z,0
2018-11-04T02:10:36.156Z,0
2018-11-04T02:11:16.707Z,0
2018-11-04T02:11:57.275Z,0
2018-11-04T02:12:37.827Z,0
2018-11-04T02:13:18.397Z,0
2018-11-04T02:13:58.949Z,0
2018-11-04T02:14:39.506Z,0
2018-11-04T02:15:20.084Z,0
2018-11-04T02:16:00.657Z,0
2018-11-04T02:16:41.287Z,0
2018-11-04T02:17:21.858Z,0
2018-11-04T02:18:02.416Z,0
2018-11-04T02:18:42.997Z,0
2018-11-04T02:19:23.562Z,0
2018-11-04T02:20:04.136Z,0
2018-11-04T02:20:44.685Z,0
2018-11-04T02:21:25.258Z,0
2018-11-04T02:22:05.826Z,0
2018-11-04T02:22:46.378Z,0
2018-11-04T02:23:26.938Z,0
2018-11-04T02:24:07.497Z,0
2018-11-04T02:24:48.053Z,0
2018-11-04T02:25:28.607Z,0
2018-11-04T02:26:09.197Z,0
2018-11-04T02:26:49.765Z,0
2018-11-04T02:27:30.337Z,0
2018-11-04T02:28:10.889Z,0
2018-11-04T02:28:51.435Z,0
2018-11-04T02:29:32.009Z,0
2018-11-04T02:30:12.566Z,0
2018-11-04T02:30:53.128Z,0
2018-11-04T02:31:33.685Z,0
2018-11-04T02:32:14.341Z,0
2018-11-04T02:32:54.907Z,0
2018-11-04T02:33:35.479Z,0
2018-11-04T02:34:16.025Z,0
2018-11-04T02:34:56.600Z,0
2018-11-04T02:35:37.171Z,0
2018-11-04T02:36:17.724Z,0
2018-11-04T02:36:58.278Z,0
2018-11-04T02:37:38.877Z,0
2018-11-04T02:38:19.432Z,0
2018-11-04T02:39:00.115Z,0
2018-11-04T02:39:40.717Z,0
2018-11-04T02:40:21.297Z,0
2018-11-04T02:41:01.838Z,0
2018-11-04T02:41:42.395Z,0
2018-11-04T02:42:22.986Z,0
2018-11-04T02:43:03.534Z,0
2018-11-04T02:43:44.088Z,0
2018-11-04T02:44:24.646Z,0
2018-11-04T02:45:05.207Z,0
2018-11-04T02:45:45.764Z,0
2018-11-04T02:46:26.313Z,0
2018-11-04T02:47:06.960Z,0
2018-11-04T02:47:47.432Z,0
2018-11-04T02:48:27.981Z,0
2018-11-04T02:49:08.540Z,0
2018-11-04T02:49:49.085Z,0
2018-11-04T02:50:29.649Z,0
2018-11-04T02:51:10.243Z,0
2018-11-04T02:51:50.819Z,0
2018-11-04T02:52:31.369Z,0
2018-11-04T02:53:11.927Z,0
2018-11-04T02:53:52.637Z,0
2018-11-04T02:54:33.196Z,0
2018-11-04T02:55:13.778Z,0
2018-11-04T02:55:54.316Z,0
2018-11-04T02:56:34.879Z,0
2018-11-04T02:57:15.441Z,0
2018-11-04T02:57:56.003Z,0
2018-11-04T02:58:36.561Z,0
2018-11-04T02:59:17.115Z,0
2018-11-04T02:59:57.675Z,0
2018-11-04T03:00:38.235Z,0
2018-11-04T03:01:18.785Z,0
2018-11-04T03:01:59.436Z,0
2018-11-04T03:02:39.920Z,0
2018-11-04T03:03:20.487Z,0
2018-11-04T03:04:01.050Z,0
2018-11-04T03:04:41.589Z,0
2018-11-04T03:05:22.165Z,0
2018-11-04T03:06:02.747Z,0
2018-11-04T03:06:43.330Z,0
2018-11-04T03:07:23.890Z,0
2018-11-04T03:08:04.490Z,0
2018-11-04T03:08:45.023Z,0
2018-11-04T03:09:25.636Z,0
2018-11-04T03:10:06.198Z,0
2018-11-04T03:10:46.750Z,0
2018-11-04T03:11:27.327Z,0
2018-11-04T03:12:07.862Z,0
2018-11-04T03:12:48.415Z,0
2018-11-04T03:13:28.989Z,0
2018-11-04T03:14:09.604Z,0
2018-11-04T03:14:50.157Z,0
2018-11-04T03:15:30.712Z,0
2018-11-04T03:16:11.279Z,0
2018-11-04T03:16:51.841Z,0
2018-11-04T03:17:32.388Z,0
2018-11-04T03:18:12.959Z,0
2018-11-04T03:18:53.512Z,0
2018-11-04T03:19:34.074Z,0
2018-11-04T03:20:14.642Z,0
2018-11-04T03:20:55.192Z,0
2018-11-04T03:21:35.741Z,0
2018-11-04T03:22:16.323Z,0
2018-11-04T03:22:56.878Z,0
2018-11-04T03:23:37.450Z,0
2018-11-04T03:24:17.966Z,0
2018-11-04T03:24:58.537Z,0
2018-11-04T03:25:39.106Z,0
2018-11-04T03:26:19.682Z,0
2018-11-04T03:27:00.238Z,0
2018-11-04T03:27:40.914Z,0
2018-11-04T03:28:21.472Z,0
2018-11-04T03:29:02.018Z,0
2018-11-04T03:29:42.583Z,0
2018-11-04T03:30:23.183Z,0
2018-11-04T03:31:03.733Z,0
2018-11-04T03:31:44.296Z,0
2018-11-04T03:32:24.863Z,0
2018-11-04T03:33:05.416Z,0
2018-11-04T03:33:45.973Z,0
2018-11-04T03:34:26.539Z,0
2018-11-04T03:35:07.084Z,0
2018-11-04T03:35:47.634Z,0
2018-11-04T03:36:28.206Z,0
2018-11-04T03:37:08.752Z,0
2018-11-04T03:37:49.361Z,0
2018-11-04T03:38:29.976Z,0
2018-11-04T03:39:10.538Z,0
2018-11-04T03:39:51.094Z,0
2018-11-04T03:40:31.621Z,0
2018-11-04T03:41:12.172Z,0
2018-11-04T03:41:52.742Z,0
2018-11-04T03:42:33.299Z,0
2018-11-04T03:43:13.856Z,0
2018-11-04T03:43:54.407Z,0
2018-11-04T03:44:34.985Z,0
2018-11-04T03:45:15.564Z,0
2018-11-04T03:45:56.154Z,0
2018-11-04T03:46:36.714Z,0
2018-11-04T03:47:17.288Z,0
2018-11-04T03:47:57.855Z,0
2018-11-04T03:48:38.433Z,0
2018-11-04T03:49:19.014Z,0
2018-11-04T03:49:59.567Z,0
2018-11-04T03:50:40.128Z,0
2018-11-04T03:51:20.693Z,0
2018-11-04T03:52:01.240Z,0
2018-11-04T03:52:41.802Z,0
2018-11-04T03:53:22.360Z,0
2018-11-04T03:54:02.915Z,0
2018-11-04T03:54:43.474Z,0
2018-11-04T03:55:24.036Z,0
2018-11-04T03:56:04.583Z,0
2018-11-04T03:56:45.222Z,0
2018-11-04T03:57:25.774Z,0
2018-11-04T03:58:06.333Z,0
2018-11-04T03:58:46.870Z,0
2018-11-04T03:59:27.431Z,0
2018-11-04T04:00:08.020Z,0
2018-11-04T04:00:48.590Z,0
2018-11-04T04:01:29.174Z,0
2018-11-04T04:02:09.748Z,0
2018-11-04T04:02:50.307Z,0
2018-11-04T04:03:30.903Z,0
2018-11-04T04:04:11.497Z,0
2018-11-04T04:04:52.062Z,0
2018-11-04T04:05:32.631Z,0
2018-11-04T04:06:13.181Z,0
2018-11-04T04:06:53.752Z,0
2018-11-04T04:07:34.307Z,0
2018-11-04T04:08:14.862Z,0
2018-11-04T04:08:55.423Z,0
2018-11-04T04:09:35.976Z,0
2018-11-04T04:10:16.534Z,0
2018-11-04T04:10:57.094Z,0
2018-11-04T04:11:37.667Z,0
2018-11-04T04:12:18.223Z,0
2018-11-04T04:12:58.821Z,0
2018-11-04T04:13:39.360Z,0
2018-11-04T04:14:19.938Z,0
2018-11-04T04:15:00.495Z,0
2018-11-04T04:15:41.075Z,0
2018-11-04T04:16:21.640Z,0
2018-11-04T04:17:02.206Z,0
2018-11-04T04:17:42.749Z,0
2018-11-04T04:18:23.308Z,0
2018-11-04T04:19:03.873Z,0
2018-11-04T04:19:44.424Z,0
2018-11-04T04:20:24.978Z,0
2018-11-04T04:21:05.535Z,0
2018-11-04T04:21:46.095Z,0
2018-11-04T04:22:26.660Z,0
2018-11-04T04:23:07.221Z,0
2018-11-04T04:23:47.777Z,0
2018-11-04T04:24:28.331Z,0
2018-11-04T04:25:08.882Z,0
2018-11-04T04:25:49.453Z,0
2018-11-04T04:26:30.010Z,0
2018-11-04T04:27:10.555Z,0
2018-11-04T04:27:51.108Z,0
2018-11-04T04:28:31.681Z,0
2018-11-04T04:29:12.233Z,0
2018-11-04T04:29:52.782Z,0
2018-11-04T04:30:33.341Z,0
2018-11-04T04:31:13.898Z,0
2018-11-04T04:31:54.469Z,0
2018-11-04T04:32:35.042Z,0
2018-11-04T04:33:15.609Z,0
2018-11-04T04:33:56.173Z,0
2018-11-04T04:34:36.765Z,0
2018-11-04T04:35:17.309Z,0
2018-11-04T04:35:57.868Z,0
2018-11-04T04:36:38.412Z,0
2018-11-04T04:37:18.969Z,0
2018-11-04T04:37:59.545Z,0
2018-11-04T04:38:40.102Z,0
2018-11-04T04:39:20.694Z,0
2018-11-04T04:40:01.220Z,0
2018-11-04T04:40:41.774Z,0
2018-11-04T04:41:22.316Z,0
2018-11-04T04:42:02.876Z,0
2018-11-04T04:42:43.443Z,0
2018-11-04T04:43:24.008Z,0
2018-11-04T04:44:04.601Z,0
2018-11-04T04:44:45.190Z,0
2018-11-04T04:45:25.748Z,0
2018-11-04T04:46:06.314Z,0
2018-11-04T04:46:46.864Z,0
2018-11-04T04:47:27.428Z,0
2018-11-04T04:48:08.007Z,0
2018-11-04T04:48:48.666Z,0
2018-11-04T04:49:29.232Z,0
2018-11-04T04:50:09.792Z,0
2018-11-04T04:50:50.356Z,0
2018-11-04T04:51:30.927Z,0
2018-11-04T04:52:11.482Z,0
2018-11-04T04:52:52.031Z,0
2018-11-04T04:53:32.593Z,0
2018-11-04T04:54:13.160Z,0
2018-11-04T04:54:53.751Z,0
2018-11-04T04:55:34.311Z,0
2018-11-04T04:56:14.869Z,0
2018-11-04T04:56:55.430Z,0
2018-11-04T04:57:35.983Z,0
2018-11-04T04:58:16.537Z,0
2018-11-04T04:58:57.096Z,0
2018-11-04T04:59:37.644Z,0
2018-11-04T05:00:18.190Z,0
2018-11-04T05:00:58.741Z,0
2018-11-04T05:01:39.312Z,0
2018-11-04T05:02:19.866Z,0
2018-11-04T05:03:00.430Z,0
2018-11-04T05:03:40.989Z,0
2018-11-04T05:04:21.585Z,0
2018-11-04T05:05:02.172Z,0
2018-11-04T05:05:42.740Z,0
2018-11-04T05:06:23.305Z,0
2018-11-04T05:07:03.848Z,0
2018-11-04T05:07:44.407Z,0
2018-11-04T05:08:24.993Z,0
2018-11-04T05:09:05.545Z,0
2018-11-04T05:09:46.130Z,0
2018-11-04T05:10:26.694Z,0
2018-11-04T05:11:07.283Z,0
2018-11-04T05:11:47.844Z,0
2018-11-04T05:12:28.409Z,0
2018-11-04T05:13:08.974Z,0
2018-11-04T05:13:49.539Z,0
2018-11-04T05:14:30.101Z,0
2018-11-04T05:15:10.684Z,0
2018-11-04T05:15:51.242Z,0
2018-11-04T05:16:31.831Z,0
2018-11-04T05:17:12.370Z,0
2018-11-04T05:17:52.934Z,0
2018-11-04T05:18:33.503Z,0
2018-11-04T05:19:14.054Z,0
2018-11-04T05:19:54.616Z,0
2018-11-04T05:20:35.171Z,0
2018-11-04T05:21:15.725Z,0
2018-11-04T05:21:56.308Z,0
2018-11-04T05:22:36.880Z,0
2018-11-04T05:23:17.436Z,0
2018-11-04T05:23:58.004Z,0
2018-11-04T05:24:38.563Z,0
2018-11-04T05:25:19.150Z,0
2018-11-04T05:25:59.704Z,0
2018-11-04T05:26:40.261Z,0
2018-11-04T05:27:20.819Z,0
2018-11-04T05:28:01.382Z,0
2018-11-04T05:28:41.938Z,0
2018-11-04T05:29:22.493Z,0
2018-11-04T05:30:03.049Z,0
2018-11-04T05:30:43.593Z,0
2018-11-04T05:31:24.145Z,0
2018-11-04T05:32:04.734Z,0
2018-11-04T05:32:45.307Z,0
2018-11-04T05:33:25.856Z,0
2018-11-04T05:34:06.432Z,0
2018-11-04T05:34:47.055Z,0
2018-11-04T05:35:27.618Z,0
2018-11-04T05:36:08.175Z,0
2018-11-04T05:36:48.726Z,0
2018-11-04T05:37:29.287Z,0
2018-11-04T05:38:09.849Z,0
2018-11-04T05:38:50.379Z,0
2018-11-04T05:39:30.960Z,0
2018-11-04T05:40:11.519Z,0
2018-11-04T05:40:52.082Z,0
2018-11-04T05:41:32.671Z,0
2018-11-04T05:42:13.232Z,0
2018-11-04T05:42:53.797Z,0
2018-11-04T05:43:34.346Z,0
2018-11-04T05:44:14.909Z,0
2018-11-04T05:44:55.456Z,0
2018-11-04T05:45:36.018Z,0
2018-11-04T05:46:16.564Z,0
2018-11-04T05:46:57.155Z,0
2018-11-04T05:47:37.695Z,0
2018-11-04T05:48:18.262Z,0
2018-11-04T05:48:58.865Z,0
2018-11-04T05:49:39.468Z,0
2018-11-04T05:50:20.023Z,0
2018-11-04T05:51:00.580Z,0
2018-11-04T05:51:41.153Z,0
2018-11-04T05:52:21.743Z,0
2018-11-04T05:53:02.306Z,0
2018-11-04T05:53:42.892Z,0
2018-11-04T05:54:23.443Z,0
2018-11-04T05:55:04.002Z,0
2018-11-04T05:55:44.551Z,0
2018-11-04T05:56:25.108Z,0
2018-11-04T05:57:05.660Z,0
2018-11-04T05:57:46.231Z,0
2018-11-04T05:58:26.772Z,0
2018-11-04T05:59:07.322Z,0
2018-11-04T05:59:47.870Z,0
2018-11-04T06:00:28.442Z,0
2018-11-04T06:01:09.020Z,0
2018-11-04T06:01:49.613Z,0
2018-11-04T06:02:30.191Z,0
2018-11-04T06:03:10.761Z,0
2018-11-04T06:03:51.363Z,0
2018-11-04T06:04:31.919Z,0
2018-11-04T06:05:12.477Z,0
2018-11-04T06:05:53.030Z,0
2018-11-04T06:06:33.633Z,0
2018-11-04T06:07:14.193Z,0
2018-11-04T06:07:54.770Z,0
2018-11-04T06:08:35.324Z,0
2018-11-04T06:09:15.964Z,0
2018-11-04T06:09:56.538Z,0
2018-11-04T06:10:38.031Z,0
2018-11-04T06:11:19.784Z,0
2018-11-04T06:12:01.466Z,0
2018-11-04T06:12:43.292Z,0
2018-11-04T06:13:25.712Z,0
2018-11-04T06:14:07.953Z,0
2018-11-04T06:14:49.506Z,0
2018-11-04T06:15:31.220Z,0
2018-11-04T06:16:13.347Z,0
2018-11-04T06:16:54.937Z,0
2018-11-04T06:17:36.496Z,0
2018-11-04T06:18:18.168Z,0
2018-11-04T06:19:00.689Z,0
2018-11-04T06:19:42.407Z,0
2018-11-04T06:20:25.731Z,0
2018-11-04T06:21:07.252Z,0
2018-11-04T06:21:50.902Z,0
2018-11-04T06:22:31.879Z,0
2018-11-04T06:23:12.441Z,0
2018-11-04T06:23:53.016Z,0
2018-11-04T06:24:33.550Z,0
2018-11-04T06:25:14.113Z,0
2018-11-04T06:25:54.803Z,0
2018-11-04T06:26:35.354Z,0
2018-11-04T06:27:15.907Z,0
2018-11-04T06:27:56.448Z,0
2018-11-04T06:28:36.999Z,0
2018-11-04T06:29:17.613Z,0
2018-11-04T06:29:58.187Z,0
2018-11-04T06:30:38.719Z,0
2018-11-04T06:31:19.295Z,0
2018-11-04T06:31:59.858Z,0
2018-11-04T06:32:40.470Z,0
2018-11-04T06:33:21.014Z,0
2018-11-04T06:34:01.588Z,0
2018-11-04T06:34:42.173Z,0
2018-11-04T06:35:22.710Z,0
2018-11-04T06:36:03.377Z,0
2018-11-04T06:36:43.927Z,0
2018-11-04T06:37:24.487Z,0
2018-11-04T06:38:05.065Z,0
2018-11-04T06:38:45.619Z,0
2018-11-04T06:39:26.183Z,0
2018-11-04T06:40:06.788Z,0
2018-11-04T06:40:47.377Z,0
2018-11-04T06:41:27.948Z,0
2018-11-04T06:42:08.508Z,0
2018-11-04T06:42:49.082Z,0
2018-11-04T06:43:29.638Z,0
2018-11-04T06:44:10.197Z,0
2018-11-04T06:44:50.752Z,0
2018-11-04T06:45:31.310Z,0
2018-11-04T06:46:11.905Z,0
2018-11-04T06:46:52.452Z,0
2018-11-04T06:47:33.083Z,0
2018-11-04T06:48:13.555Z,0
2018-11-04T06:48:54.124Z,0
2018-11-04T06:49:34.662Z,0
2018-11-04T06:50:15.222Z,0
2018-11-04T06:50:55.784Z,5
2018-11-04T06:51:36.342Z,5
2018-11-04T06:52:16.879Z,5
2018-11-04T06:52:57.432Z,5
2018-11-04T06:53:37.980Z,5
2018-11-04T06:54:18.536Z,5
2018-11-04T06:54:59.090Z,5
2018-11-04T06:55:39.661Z,5
2018-11-04T06:56:20.220Z,5
2018-11-04T06:57:02.588Z,5
2018-11-04T06:57:43.168Z,5
2018-11-04T06:58:23.725Z,5
2018-11-04T06:59:04.298Z,5
2018-11-04T06:59:44.874Z,5
2018-11-04T07:00:25.432Z,5
2018-11-04T07:01:05.982Z,5
2018-11-04T07:01:46.528Z,5
2018-11-04T07:02:27.094Z,5
2018-11-04T07:03:07.685Z,5
2018-11-04T07:03:48.255Z,5
2018-11-04T07:04:28.821Z,5
2018-11-04T07:05:09.374Z,5
2018-11-04T07:05:49.950Z,5
2018-11-04T07:06:30.520Z,5
2018-11-04T07:07:11.094Z,5
2018-11-04T07:07:51.651Z,5
2018-11-04T07:08:32.201Z,5
2018-11-04T07:09:12.766Z,5
2018-11-04T07:09:53.336Z,5
2018-11-04T07:10:33.904Z,5
2018-11-04T07:11:14.481Z,5
2018-11-04T07:11:55.042Z,5
2018-11-04T07:12:35.617Z,10
2018-11-04T07:13:16.175Z,10
2018-11-04T07:13:56.738Z,10
2018-11-04T07:14:37.303Z,10
2018-11-04T07:15:17.850Z,10
2018-11-04T07:15:58.410Z,10
2018-11-04T07:16:38.959Z,10
2018-11-04T07:17:19.550Z,10
2018-11-04T07:18:00.116Z,10
2018-11-04T07:18:40.667Z,10
2018-11-04T07:19:21.237Z,10
2018-11-04T07:20:01.875Z,10
2018-11-04T07:20:42.353Z,10
2018-11-04T07:21:22.915Z,10
2018-11-04T07:22:03.473Z,10
2018-11-04T07:22:44.046Z,10
2018-11-04T07:23:24.600Z,15
2018-11-04T07:24:05.143Z,15
2018-11-04T07:24:45.691Z,10
2018-11-04T07:25:26.335Z,10
2018-11-04T07:26:06.813Z,10
2018-11-04T07:26:47.393Z,10
2018-11-04T07:27:27.945Z,10
2018-11-04T07:28:08.500Z,15
2018-11-04T07:28:49.069Z,15
2018-11-04T07:29:29.618Z,15
2018-11-04T07:30:10.180Z,15
2018-11-04T07:30:50.755Z,10
2018-11-04T07:31:31.309Z,10
2018-11-04T07:32:11.908Z,15
2018-11-04T07:32:52.418Z,15
2018-11-04T07:33:32.966Z,15
2018-11-04T07:34:13.521Z,15
2018-11-04T07:34:54.078Z,15
2018-11-04T07:35:34.630Z,15
2018-11-04T07:36:15.197Z,15
2018-11-04T07:36:55.759Z,15
2018-11-04T07:37:36.331Z,15
2018-11-04T07:38:16.917Z,15
2018-11-04T07:38:57.486Z,10
2018-11-04T07:39:38.022Z,10
2018-11-04T07:40:18.573Z,10
2018-11-04T07:40:59.121Z,10
2018-11-04T07:41:39.718Z,10
2018-11-04T07:42:20.261Z,15
2018-11-04T07:43:00.813Z,15
2018-11-04T07:43:41.366Z,15
2018-11-04T07:44:22.005Z,15
2018-11-04T07:45:02.486Z,15
2018-11-04T07:45:43.046Z,15
2018-11-04T07:46:23.611Z,15
2018-11-04T07:47:04.170Z,15
2018-11-04T07:47:44.735Z,15
2018-11-04T07:48:25.297Z,15
2018-11-04T07:49:05.859Z,15
2018-11-04T07:49:46.404Z,15
2018-11-04T07:50:27.016Z,15
2018-11-04T07:51:07.502Z,15
2018-11-04T07:51:48.050Z,15
2018-11-04T07:52:28.604Z,20
2018-11-04T07:53:09.192Z,20
2018-11-04T07:53:49.749Z,20
2018-11-04T07:54:30.301Z,20
2018-11-04T07:55:10.863Z,20
2018-11-04T07:55:51.441Z,15
2018-11-04T07:56:32.031Z,15
2018-11-04T07:57:12.578Z,15
2018-11-04T07:57:53.240Z,15
2018-11-04T07:58:34.914Z,15
2018-11-04T07:59:15.780Z,15
2018-11-04T07:59:56.340Z,15
2018-11-04T08:00:36.951Z,15
2018-11-04T08:01:17.580Z,15
2018-11-04T08:01:58.213Z,15
2018-11-04T08:02:38.768Z,15
2018-11-04T08:03:19.343Z,20
2018-11-04T08:03:59.972Z,20
2018-11-04T08:04:40.449Z,20
2018-11-04T08:05:21.142Z,20
2018-11-04T08:06:02.014Z,20
2018-11-04T08:06:42.639Z,20
2018-11-04T08:07:23.195Z,20
2018-11-04T08:08:03.760Z,20
2018-11-04T08:08:44.319Z,20
2018-11-04T08:09:24.874Z,20
2018-11-04T08:10:05.467Z,20
2018-11-04T08:10:46.032Z,20
2018-11-04T08:11:26.586Z,20
2018-11-04T08:12:07.196Z,20
2018-11-04T08:12:47.766Z,20
2018-11-04T08:13:28.401Z,20
2018-11-04T08:14:09.013Z,20
2018-11-04T08:14:49.668Z,20
2018-11-04T08:15:30.281Z,20
2018-11-04T08:16:10.873Z,20
2018-11-04T08:16:51.465Z,20
2018-11-04T08:17:32.019Z,20
2018-11-04T08:18:12.576Z,20
2018-11-04T08:18:53.256Z,20
2018-11-04T08:19:33.833Z,20
2018-11-04T08:20:15.956Z,20
2018-11-04T08:20:56.938Z,25
2018-11-04T08:21:37.498Z,25
2018-11-04T08:22:18.049Z,25
2018-11-04T08:22:58.776Z,25
2018-11-04T08:23:39.549Z,25
2018-11-04T08:24:20.126Z,25
2018-11-04T08:25:00.691Z,25
2018-11-04T08:25:41.256Z,30
2018-11-04T08:26:21.823Z,30
2018-11-04T08:27:02.366Z,30
2018-11-04T08:27:42.989Z,30
2018-11-04T08:28:23.512Z,30
2018-11-04T08:29:04.050Z,30
2018-11-04T08:29:45.664Z,30
2018-11-04T08:30:26.846Z,30
2018-11-04T08:31:07.244Z,25
2018-11-04T08:31:47.810Z,25
2018-11-04T08:32:28.432Z,30
2018-11-04T08:33:09.018Z,35
2018-11-04T08:33:49.617Z,35
2018-11-04T08:34:30.274Z,40
2018-11-04T08:35:10.899Z,40
2018-11-04T08:35:51.478Z,35
2018-11-04T08:36:32.081Z,30
2018-11-04T08:37:12.618Z,25
2018-11-04T08:37:53.202Z,25
2018-11-04T08:38:33.771Z,20
2018-11-04T08:39:14.381Z,20
2018-11-04T08:39:55.331Z,20
2018-11-04T08:40:35.861Z,20
2018-11-04T08:41:16.390Z,20
2018-11-04T08:41:56.975Z,20
2018-11-04T08:42:37.532Z,20
2018-11-04T08:43:18.087Z,20
2018-11-04T08:43:58.682Z,20
2018-11-04T08:44:39.342Z,20
2018-11-04T08:45:19.956Z,20
2018-11-04T08:46:00.514Z,20
2018-11-04T08:46:41.099Z,20
2018-11-04T08:47:22.490Z,20
2018-11-04T08:48:03.226Z,20
2018-11-04T08:48:43.789Z,20
2018-11-04T08:49:24.370Z,20
2018-11-04T08:50:05.010Z,20
2018-11-04T08:50:45.554Z,20
2018-11-04T08:51:26.108Z,20
2018-11-04T08:52:07.115Z,20
2018-11-04T08:52:48.748Z,20
2018-11-04T08:53:29.505Z,25
2018-11-04T08:54:10.531Z,25
2018-11-04T08:54:51.703Z,25
2018-11-04T08:55:32.761Z,25
2018-11-04T08:56:13.797Z,25
2018-11-04T08:56:54.553Z,20
2018-11-04T08:57:35.263Z,20
2018-11-04T08:58:16.787Z,20
2018-11-04T08:58:57.561Z,20
2018-11-04T08:59:38.124Z,25
2018-11-04T09:00:18.683Z,25
2018-11-04T09:00:59.247Z,25
2018-11-04T09:01:39.842Z,25
2018-11-04T09:02:20.864Z,25
2018-11-04T09:03:01.509Z,25
2018-11-04T09:03:42.062Z,25
2018-11-04T09:04:22.681Z,25
2018-11-04T09:05:03.299Z,25
2018-11-04T09:05:43.859Z,25
2018-11-04T09:06:24.484Z,30
2018-11-04T09:07:05.005Z,30
2018-11-04T09:07:45.567Z,30
2018-11-04T09:08:26.137Z,30
2018-11-04T09:09:06.716Z,30
2018-11-04T09:09:47.266Z,30
2018-11-04T09:10:27.852Z,30
2018-11-04T09:11:08.425Z,30
2018-11-04T09:11:48.992Z,30
2018-11-04T09:12:29.598Z,35
2018-11-04T09:13:10.159Z,35
2018-11-04T09:13:50.782Z,35
2018-11-04T09:14:31.612Z,30
2018-11-04T09:15:12.188Z,30
2018-11-04T09:15:52.736Z,30
2018-11-04T09:16:33.413Z,30
2018-11-04T09:17:13.996Z,30
2018-11-04T09:17:54.660Z,30
2018-11-04T09:18:35.241Z,30
2018-11-04T09:19:15.804Z,30
2018-11-04T09:19:56.370Z,30
2018-11-04T09:20:36.926Z,30
2018-11-04T09:21:17.505Z,30
2018-11-04T09:21:58.218Z,30
2018-11-04T09:22:38.650Z,30
2018-11-04T09:23:19.202Z,30
2018-11-04T09:23:59.762Z,30
2018-11-04T09:24:40.359Z,30
2018-11-04T09:25:20.917Z,30
2018-11-04T09:26:01.495Z,30
2018-11-04T09:26:42.132Z,30
2018-11-04T09:27:22.711Z,30
2018-11-04T09:28:03.300Z,30
2018-11-04T09:28:43.853Z,30
2018-11-04T09:29:24.411Z,30
2018-11-04T09:30:05.167Z,30
2018-11-04T09:30:45.744Z,30
2018-11-04T09:31:26.519Z,30
2018-11-04T09:32:07.090Z,25
2018-11-04T09:32:48.098Z,30
2018-11-04T09:33:29.156Z,30
2018-11-04T09:34:11.452Z,30
2018-11-04T09:34:52.113Z,30
2018-11-04T09:35:33.677Z,30
2018-11-04T09:36:14.231Z,30
2018-11-04T09:36:54.703Z,30
2018-11-04T09:37:35.250Z,25
2018-11-04T09:38:15.819Z,25
2018-11-04T09:38:56.574Z,25
2018-11-04T09:39:37.148Z,25
2018-11-04T09:40:17.734Z,25
2018-11-04T09:40:58.301Z,30
2018-11-04T09:41:38.872Z,30
2018-11-04T09:42:19.450Z,30
2018-11-04T09:43:00.029Z,25
2018-11-04T09:43:40.600Z,25
2018-11-04T09:44:21.164Z,30
2018-11-04T09:45:01.857Z,30
2018-11-04T09:45:42.412Z,30
2018-11-04T09:46:22.967Z,30
2018-11-04T09:47:03.708Z,30
2018-11-04T09:47:44.483Z,30
2018-11-04T09:48:26.287Z,30
2018-11-04T09:49:07.140Z,30
2018-11-04T09:49:48.249Z,30
2018-11-04T09:50:29.152Z,30
2018-11-04T09:51:09.862Z,30
2018-11-04T09:51:50.530Z,30
2018-11-04T09:52:31.150Z,30
2018-11-04T09:53:12.021Z,30
2018-11-04T09:53:52.950Z,30
2018-11-04T09:54:33.522Z,30